createdAt,value
2016-07-01T00:00:23.313Z,81.68
2016-07-01T00:01:23.297Z,81.77
2016-07-01T00:02:23.923Z,81.58
2016-07-01T00:03:23.906Z,81.87
2016-07-01T00:04:23.902Z,81.77
2016-07-01T00:05:23.879Z,81.48
2016-07-01T00:06:23.863Z,81.58
2016-07-01T00:07:23.854Z,82.06
2016-07-01T00:08:23.839Z,82.06
2016-07-01T00:09:23.842Z,81.39
2016-07-01T00:10:23.808Z,81.96
2016-07-01T00:11:23.803Z,82.16
2016-07-01T00:12:23.812Z,81.77
2016-07-01T00:13:23.788Z,81.77
2016-07-01T00:14:23.136Z,83.41
2016-07-01T00:15:23.753Z,83.28
2016-07-01T00:16:23.085Z,83.28
2016-07-01T00:17:23.709Z,82.89
2016-07-01T00:18:23.053Z,82.93
2016-07-01T00:19:23.689Z,82.26
2016-07-01T00:20:23.668Z,82.74
2016-07-01T00:21:23.025Z,82.74
2016-07-01T00:22:23.647Z,83.22
2016-07-01T00:23:23.623Z,83.37
2016-07-01T00:24:23.618Z,83.03
2016-07-01T00:25:23.593Z,83.31
2016-07-01T00:26:23.595Z,83.31
2016-07-01T00:27:23.558Z,83.51
2016-07-01T00:28:23.565Z,83.41
2016-07-01T00:29:23.543Z,84.09
2016-07-01T00:30:23.549Z,84.05
2016-07-01T00:31:23.518Z,84.62
2016-07-01T00:32:23.492Z,84.28
2016-07-01T00:33:23.484Z,83.89
2016-07-01T00:34:23.466Z,84.47
2016-07-01T00:35:22.813Z,83.51
2016-07-01T00:36:23.443Z,84.18
2016-07-01T00:37:23.423Z,83.51
2016-07-01T00:38:23.413Z,84.09
2016-07-01T00:39:22.759Z,83.22
2016-07-01T00:40:22.744Z,83.51
2016-07-01T00:41:22.737Z,83.03
2016-07-01T00:42:22.719Z,81.96
2016-07-01T00:43:23.342Z,81.96
2016-07-01T00:44:23.318Z,82.64
2016-07-01T00:45:23.306Z,83.12
2016-07-01T00:46:22.656Z,83.41
2016-07-01T00:47:23.276Z,83.08
2016-07-01T00:48:23.268Z,82.7
2016-07-01T00:49:23.253Z,82.93
2016-07-01T00:50:22.599Z,82.35
2016-07-01T00:51:23.219Z,81.87
2016-07-01T00:52:23.206Z,82.29
2016-07-01T00:53:23.201Z,81.58
2016-07-01T00:54:23.180Z,81.48
2016-07-01T00:55:23.169Z,81.01
2016-07-01T00:56:23.158Z,81.43
2016-07-01T00:57:23.135Z,80.66
2016-07-01T00:58:23.127Z,80.94
2016-07-01T00:59:23.118Z,80.56
2016-07-01T01:00:23.101Z,80.94
2016-07-01T01:01:23.088Z,80.66
2016-07-01T01:02:23.079Z,80.66
2016-07-01T01:03:23.058Z,80.56
2016-07-01T01:04:23.057Z,81.1
2016-07-01T01:05:23.030Z,81.1
2016-07-01T01:06:22.376Z,81.01
2016-07-01T01:07:22.994Z,81.58
2016-07-01T01:08:23.011Z,81.58
2016-07-01T01:09:22.974Z,81.48
2016-07-01T01:10:22.974Z,81.29
2016-07-01T01:11:22.305Z,81.68
2016-07-01T01:12:22.925Z,81.1
2016-07-01T01:13:22.282Z,81.77
2016-07-01T01:14:22.906Z,81.77
2016-07-01T01:15:22.888Z,81.77
2016-07-01T01:16:22.877Z,81.01
2016-07-01T01:17:22.868Z,81.1
2016-07-01T01:18:22.837Z,81.29
2016-07-01T01:19:22.197Z,81.01
2016-07-01T01:20:22.815Z,81.29
2016-07-01T01:21:22.806Z,81.2
2016-07-01T01:22:22.799Z,80.43
2016-07-01T01:23:22.792Z,81.1
2016-07-01T01:24:22.134Z,81.68
2016-07-01T01:25:22.741Z,81.1
2016-07-01T01:26:22.741Z,81.1
2016-07-01T01:27:22.718Z,81.39
2016-07-01T01:28:22.699Z,81.39
2016-07-01T01:29:22.686Z,81.77
2016-07-01T01:30:22.029Z,81.58
2016-07-01T01:31:22.650Z,81.29
2016-07-01T01:32:22.651Z,81.39
2016-07-01T01:33:22.633Z,80.91
2016-07-01T01:34:21.976Z,81.01
2016-07-01T01:35:22.615Z,80.91
2016-07-01T01:36:22.594Z,81.77
2016-07-01T01:37:22.589Z,81.96
2016-07-01T01:38:22.561Z,82.02
2016-07-01T01:39:22.549Z,82.41
2016-07-01T01:40:21.887Z,82.79
2016-07-01T01:41:22.521Z,81.63
2016-07-01T01:42:21.864Z,82.21
2016-07-01T01:43:22.503Z,81.83
2016-07-01T01:44:22.467Z,81.96
2016-07-01T01:45:22.463Z,81.93
2016-07-01T01:46:22.455Z,82.79
2016-07-01T01:47:22.433Z,82.79
2016-07-01T01:48:22.417Z,81.83
2016-07-01T01:49:22.416Z,81.83
2016-07-01T01:50:22.397Z,81.83
2016-07-01T01:51:22.377Z,83.41
2016-07-01T01:52:22.362Z,83.08
2016-07-01T01:53:22.349Z,82.79
2016-07-01T01:54:22.338Z,82.79
2016-07-01T01:55:22.317Z,82.21
2016-07-01T01:56:22.293Z,82.41
2016-07-01T01:57:22.283Z,82.7
2016-07-01T01:58:22.270Z,81.93
2016-07-01T01:59:22.260Z,82.12
2016-07-01T02:00:22.250Z,81.73
2016-07-01T02:01:22.230Z,82.12
2016-07-01T02:02:22.218Z,82.02
2016-07-01T02:03:22.212Z,82.02
2016-07-01T02:04:22.187Z,81.83
2016-07-01T02:05:22.187Z,81.45
2016-07-01T02:06:21.520Z,81.68
2016-07-01T02:07:22.174Z,81.48
2016-07-01T02:08:22.139Z,81.77
2016-07-01T02:09:22.112Z,81.2
2016-07-01T02:10:22.114Z,81.01
2016-07-01T02:11:22.097Z,81.68
2016-07-01T02:12:22.088Z,81.83
2016-07-01T02:13:21.423Z,81.63
2016-07-01T02:14:22.068Z,81.73
2016-07-01T02:15:22.036Z,81.63
2016-07-01T02:16:21.378Z,81.54
2016-07-01T02:17:21.371Z,80.77
2016-07-01T02:18:21.980Z,80.23
2016-07-01T02:19:21.970Z,80.14
2016-07-01T02:20:21.962Z,80.23
2016-07-01T02:21:21.315Z,80.52
2016-07-01T02:22:21.293Z,80.43
2016-07-01T02:23:21.912Z,80.43
2016-07-01T02:24:21.261Z,80.52
2016-07-01T02:25:21.249Z,81.1
2016-07-01T02:26:21.885Z,80.71
2016-07-01T02:27:21.223Z,80.71
2016-07-01T02:28:21.841Z,80.43
2016-07-01T02:29:21.827Z,80.23
2016-07-01T02:30:21.819Z,81.01
2016-07-01T02:31:21.834Z,80.23
2016-07-01T02:32:21.790Z,80.81
2016-07-01T02:33:21.774Z,81.01
2016-07-01T02:34:21.795Z,81.01
2016-07-01T02:35:21.746Z,81.2
2016-07-01T02:36:21.733Z,81.2
2016-07-01T02:37:21.710Z,81.2
2016-07-01T02:38:21.705Z,81.1
2016-07-01T02:39:21.683Z,81.2
2016-07-01T02:40:21.037Z,81.63
2016-07-01T02:41:21.025Z,81.39
2016-07-01T02:42:21.654Z,80.81
2016-07-01T02:43:20.998Z,81.1
2016-07-01T02:44:20.979Z,80.04
2016-07-01T02:45:20.963Z,80.52
2016-07-01T02:46:20.946Z,80.91
2016-07-01T02:47:20.932Z,81.48
2016-07-01T02:48:21.562Z,81.01
2016-07-01T02:49:21.548Z,81.68
2016-07-01T02:50:21.534Z,81.01
2016-07-01T02:51:21.516Z,81.2
2016-07-01T02:52:21.517Z,81.1
2016-07-01T02:53:21.490Z,80.14
2016-07-01T02:54:21.485Z,80.62
2016-07-01T02:55:21.455Z,80.23
2016-07-01T02:56:21.443Z,80.33
2016-07-01T02:57:21.452Z,80.43
2016-07-01T02:58:21.411Z,80.43
2016-07-01T02:59:21.418Z,80.91
2016-07-01T03:00:21.394Z,81.01
2016-07-01T03:01:20.738Z,80.71
2016-07-01T03:02:21.359Z,81.29
2016-07-01T03:03:21.338Z,81.39
2016-07-01T03:04:20.695Z,81.01
2016-07-01T03:05:21.323Z,81.39
2016-07-01T03:06:20.661Z,81.01
2016-07-01T03:07:21.295Z,81.58
2016-07-01T03:08:20.640Z,81.58
2016-07-01T03:09:21.260Z,81.39
2016-07-01T03:10:21.270Z,81.58
2016-07-01T03:11:21.286Z,81.39
2016-07-01T03:12:21.220Z,81.58
2016-07-01T03:13:21.206Z,81.58
2016-07-01T03:14:21.215Z,81.58
2016-07-01T03:15:21.174Z,81.96
2016-07-01T03:16:21.163Z,81.96
2016-07-01T03:17:21.152Z,81.83
2016-07-01T03:18:20.496Z,82.02
2016-07-01T03:19:21.126Z,82.06
2016-07-01T03:20:21.099Z,81.58
2016-07-01T03:21:20.457Z,81.58
2016-07-01T03:22:21.080Z,81.58
2016-07-01T03:23:20.433Z,81.01
2016-07-01T03:24:21.068Z,81.2
2016-07-01T03:25:21.044Z,81.29
2016-07-01T03:26:20.395Z,81.87
2016-07-01T03:27:21.009Z,81.01
2016-07-01T03:28:20.997Z,81.68
2016-07-01T03:29:20.977Z,82.35
2016-07-01T03:30:20.971Z,82.31
2016-07-01T03:31:20.949Z,81.77
2016-07-01T03:32:20.987Z,81.58
2016-07-01T03:33:20.929Z,81.68
2016-07-01T03:34:20.909Z,81.29
2016-07-01T03:35:20.903Z,81.1
2016-07-01T03:36:20.895Z,81.1
2016-07-01T03:37:20.873Z,81.58
2016-07-01T03:38:20.221Z,81.39
2016-07-01T03:39:20.833Z,81.96
2016-07-01T03:40:20.194Z,82.74
2016-07-01T03:41:20.810Z,82.54
2016-07-01T03:42:20.788Z,82.64
2016-07-01T03:43:20.784Z,81.96
2016-07-01T03:44:20.787Z,82.64
2016-07-01T03:45:20.760Z,82.16
2016-07-01T03:46:20.736Z,82.64
2016-07-01T03:47:20.728Z,82.35
2016-07-01T03:48:20.700Z,82.74
2016-07-01T03:49:20.695Z,83.12
2016-07-01T03:50:20.049Z,83.28
2016-07-01T03:51:20.029Z,83.51
2016-07-01T03:52:20.013Z,82.54
2016-07-01T03:53:20.633Z,82.31
2016-07-01T03:54:20.625Z,82.45
2016-07-01T03:55:20.625Z,82.16
2016-07-01T03:56:20.589Z,82.16
2016-07-01T03:57:20.594Z,82.26
2016-07-01T03:58:20.578Z,82.35
2016-07-01T03:59:20.547Z,82.64
2016-07-01T04:00:20.536Z,82.26
2016-07-01T04:01:20.523Z,82.83
2016-07-01T04:02:20.507Z,82.83
2016-07-01T04:03:19.850Z,83.03
2016-07-01T04:04:20.476Z,82.54
2016-07-01T04:05:19.821Z,81.87
2016-07-01T04:06:20.466Z,82.35
2016-07-01T04:07:19.804Z,81.87
2016-07-01T04:08:19.794Z,82.74
2016-07-01T04:09:20.636Z,82.64
2016-07-01T04:10:20.394Z,82.26
2016-07-01T04:11:20.401Z,81.77
2016-07-01T04:12:20.371Z,81.52
2016-07-01T04:13:20.360Z,81.33
2016-07-01T04:14:19.706Z,82.06
2016-07-01T04:15:20.322Z,82.54
2016-07-01T04:16:20.304Z,82.54
2016-07-01T04:17:20.294Z,82.74
2016-07-01T04:18:19.645Z,82.35
2016-07-01T04:19:20.274Z,82.06
2016-07-01T04:20:20.259Z,82.16
2016-07-01T04:21:19.593Z,81.91
2016-07-01T04:22:19.601Z,82.26
2016-07-01T04:23:20.213Z,82.64
2016-07-01T04:24:20.201Z,82.54
2016-07-01T04:25:20.181Z,83.03
2016-07-01T04:26:20.186Z,83.31
2016-07-01T04:27:20.157Z,83.12
2016-07-01T04:28:20.147Z,83.51
2016-07-01T04:29:20.126Z,82.74
2016-07-01T04:30:20.104Z,82.54
2016-07-01T04:31:19.464Z,82.74
2016-07-01T04:32:19.446Z,82.54
2016-07-01T04:33:20.073Z,81.87
2016-07-01T04:34:20.058Z,81.29
2016-07-01T04:35:20.043Z,81.48
2016-07-01T04:36:20.031Z,81.72
2016-07-01T04:37:20.046Z,81.24
2016-07-01T04:38:19.991Z,82.2
2016-07-01T04:39:19.984Z,81.77
2016-07-01T04:40:19.986Z,82.06
2016-07-01T04:41:19.950Z,81.87
2016-07-01T04:42:19.949Z,82.26
2016-07-01T04:43:19.922Z,82.26
2016-07-01T04:44:19.912Z,82.45
2016-07-01T04:45:19.903Z,82.26
2016-07-01T04:46:19.247Z,81.87
2016-07-01T04:47:19.889Z,82.74
2016-07-01T04:48:19.856Z,82.45
2016-07-01T04:49:19.846Z,82.35
2016-07-01T04:50:20.061Z,82.49
2016-07-01T04:51:19.194Z,82.74
2016-07-01T04:52:19.828Z,82.16
2016-07-01T04:53:19.791Z,82.06
2016-07-01T04:54:19.777Z,82.29
2016-07-01T04:55:19.760Z,81.72
2016-07-01T04:56:19.124Z,82.1
2016-07-01T04:57:19.095Z,82.54
2016-07-01T04:58:19.071Z,83.12
2016-07-01T04:59:19.712Z,81.87
2016-07-01T05:00:19.691Z,82.01
2016-07-01T05:01:19.674Z,83.03
2016-07-01T05:02:19.666Z,82.45
2016-07-01T05:03:19.641Z,82.29
2016-07-01T05:04:19.631Z,82.64
2016-07-01T05:05:18.990Z,82.93
2016-07-01T05:06:19.601Z,82.35
2016-07-01T05:07:18.955Z,83.31
2016-07-01T05:08:18.938Z,83.22
2016-07-01T05:09:19.563Z,83.12
2016-07-01T05:10:19.553Z,83.8
2016-07-01T05:11:19.547Z,83.8
2016-07-01T05:12:19.515Z,83.8
2016-07-01T05:13:18.882Z,84.47
2016-07-01T05:14:19.485Z,84.56
2016-07-01T05:15:18.837Z,85.43
2016-07-01T05:16:19.462Z,84.56
2016-07-01T05:17:19.447Z,84.56
2016-07-01T05:18:19.447Z,85.34
2016-07-01T05:19:19.421Z,86.74
2016-07-01T05:20:19.424Z,86.16
2016-07-01T05:21:18.752Z,86.74
2016-07-01T05:22:18.735Z,86.93
2016-07-01T05:23:19.414Z,86.99
2016-07-01T05:24:19.341Z,86.35
2016-07-01T05:25:18.689Z,86.35
2016-07-01T05:26:18.700Z,86.45
2016-07-01T05:27:19.303Z,86.83
2016-07-01T05:28:18.658Z,87.22
2016-07-01T05:29:19.278Z,86.79
2016-07-01T05:30:19.271Z,86.83
2016-07-01T05:31:18.599Z,86.35
2016-07-01T05:32:19.230Z,86.45
2016-07-01T05:33:19.214Z,86.45
2016-07-01T05:34:19.208Z,85.97
2016-07-01T05:35:19.191Z,86.35
2016-07-01T05:36:19.178Z,86.45
2016-07-01T05:37:19.170Z,86.45
2016-07-01T05:38:19.151Z,85.87
2016-07-01T05:39:19.128Z,85.97
2016-07-01T05:40:19.112Z,85.78
2016-07-01T05:41:19.112Z,85.49
2016-07-01T05:42:19.083Z,85.2
2016-07-01T05:43:18.435Z,85.14
2016-07-01T05:44:18.419Z,85.43
2016-07-01T05:45:18.405Z,85.49
2016-07-01T05:46:19.036Z,85.39
2016-07-01T05:47:19.015Z,84.62
2016-07-01T05:48:18.361Z,85.2
2016-07-01T05:49:18.987Z,84.81
2016-07-01T05:50:18.980Z,84.23
2016-07-01T05:51:18.959Z,84.05
2016-07-01T05:52:18.945Z,84.14
2016-07-01T05:53:18.932Z,84.05
2016-07-01T05:54:18.922Z,84.81
2016-07-01T05:55:18.896Z,84.05
2016-07-01T05:56:18.884Z,83.95
2016-07-01T05:57:18.235Z,84
2016-07-01T05:58:18.859Z,83.37
2016-07-01T05:59:18.843Z,83.56
2016-07-01T06:00:18.183Z,83.18
2016-07-01T06:01:18.818Z,82.7
2016-07-01T06:02:18.801Z,82.5
2016-07-01T06:03:18.791Z,82.5
2016-07-01T06:04:18.764Z,81.93
2016-07-01T06:05:18.137Z,82.12
2016-07-01T06:06:18.739Z,81.35
2016-07-01T06:07:18.098Z,82.12
2016-07-01T06:08:18.075Z,81.83
2016-07-01T06:09:18.065Z,82.12
2016-07-01T06:10:18.054Z,82.02
2016-07-01T06:11:18.032Z,81.1
2016-07-01T06:12:18.660Z,81.58
2016-07-01T06:13:18.664Z,81.77
2016-07-01T06:14:18.706Z,82.31
2016-07-01T06:15:17.981Z,82.5
2016-07-01T06:16:17.961Z,82.7
2016-07-01T06:17:18.591Z,82.6
2016-07-01T06:18:18.573Z,81.83
2016-07-01T06:19:17.923Z,82.12
2016-07-01T06:20:18.549Z,81.68
2016-07-01T06:21:18.529Z,81.58
2016-07-01T06:22:18.562Z,81.68
2016-07-01T06:23:17.859Z,81.77
2016-07-01T06:24:17.860Z,81.68
2016-07-01T06:25:18.474Z,81.39
2016-07-01T06:26:18.465Z,81.68
2016-07-01T06:27:18.444Z,81.68
2016-07-01T06:28:18.424Z,81.48
2016-07-01T06:29:18.423Z,81.54
2016-07-01T06:30:17.759Z,81.63
2016-07-01T06:31:18.405Z,81.73
2016-07-01T06:32:18.366Z,81.35
2016-07-01T06:33:18.363Z,80.58
2016-07-01T06:34:17.704Z,80.87
2016-07-01T06:35:17.694Z,80.96
2016-07-01T06:36:18.315Z,80.87
2016-07-01T06:37:17.682Z,82.12
2016-07-01T06:38:18.286Z,81.54
2016-07-01T06:39:18.270Z,81.45
2016-07-01T06:40:18.254Z,81.45
2016-07-01T06:41:18.251Z,81.16
2016-07-01T06:42:18.227Z,81.93
2016-07-01T06:43:18.214Z,81.93
2016-07-01T06:44:18.214Z,81.83
2016-07-01T06:45:18.194Z,82.12
2016-07-01T06:46:18.178Z,82.12
2016-07-01T06:47:18.157Z,81.16
2016-07-01T06:48:18.160Z,81.63
2016-07-01T06:49:18.133Z,81.45
2016-07-01T06:50:18.114Z,81.96
2016-07-01T06:51:18.102Z,82.21
2016-07-01T06:52:18.086Z,81.63
2016-07-01T06:53:18.076Z,81.25
2016-07-01T06:54:18.062Z,81.39
2016-07-01T06:55:18.045Z,81.06
2016-07-01T06:56:17.386Z,81.06
2016-07-01T06:57:18.007Z,81.54
2016-07-01T06:58:18.010Z,81.73
2016-07-01T06:59:17.995Z,81.06
2016-07-01T07:00:18.007Z,81.45
2016-07-01T07:01:17.969Z,81.25
2016-07-01T07:02:17.943Z,80.68
2016-07-01T07:03:17.929Z,81.06
2016-07-01T07:04:17.926Z,81.73
2016-07-01T07:05:17.267Z,80.87
2016-07-01T07:06:17.899Z,81.83
2016-07-01T07:07:17.883Z,81.35
2016-07-01T07:08:17.850Z,80.87
2016-07-01T07:09:17.842Z,81.06
2016-07-01T07:10:17.844Z,80.91
2016-07-01T07:11:17.821Z,81.25
2016-07-01T07:12:17.806Z,81.54
2016-07-01T07:13:17.793Z,81.63
2016-07-01T07:14:17.778Z,81.54
2016-07-01T07:15:17.789Z,81.45
2016-07-01T07:16:17.756Z,81.25
2016-07-01T07:17:17.743Z,80.43
2016-07-01T07:18:17.753Z,80.91
2016-07-01T07:19:17.700Z,81.83
2016-07-01T07:20:17.690Z,81.16
2016-07-01T07:21:17.676Z,81.25
2016-07-01T07:22:17.700Z,81.16
2016-07-01T07:23:17.647Z,80.52
2016-07-01T07:24:17.649Z,80.23
2016-07-01T07:25:17.624Z,80.23
2016-07-01T07:26:17.602Z,79.56
2016-07-01T07:27:16.985Z,80.23
2016-07-01T07:28:16.940Z,80.52
2016-07-01T07:29:16.928Z,80.52
2016-07-01T07:30:17.551Z,80.04
2016-07-01T07:31:16.910Z,79.94
2016-07-01T07:32:16.879Z,79.56
2016-07-01T07:33:16.874Z,79.27
2016-07-01T07:34:17.498Z,79.08
2016-07-01T07:35:17.498Z,79.36
2016-07-01T07:36:16.827Z,79.17
2016-07-01T07:37:17.468Z,78.83
2016-07-01T07:38:17.443Z,79.02
2016-07-01T07:39:16.794Z,78.92
2016-07-01T07:40:17.411Z,79.5
2016-07-01T07:41:17.404Z,79.36
2016-07-01T07:42:17.378Z,78.92
2016-07-01T07:43:16.731Z,78.83
2016-07-01T07:44:17.349Z,79.21
2016-07-01T07:45:16.710Z,78.88
2016-07-01T07:46:16.694Z,79.08
2016-07-01T07:47:17.321Z,78.88
2016-07-01T07:48:16.660Z,78.21
2016-07-01T07:49:17.288Z,77.96
2016-07-01T07:50:17.270Z,78.06
2016-07-01T07:51:16.631Z,77.58
2016-07-01T07:52:16.607Z,77.67
2016-07-01T07:53:16.595Z,77.86
2016-07-01T07:54:17.228Z,78.15
2016-07-01T07:55:17.211Z,77.76
2016-07-01T07:56:17.206Z,78.25
2016-07-01T07:57:17.171Z,79.02
2016-07-01T07:58:17.157Z,78.25
2016-07-01T07:59:16.504Z,77.86
2016-07-01T08:00:16.511Z,78.34
2016-07-01T08:01:17.118Z,77.96
2016-07-01T08:02:17.109Z,78.63
2016-07-01T08:03:16.455Z,78.98
2016-07-01T08:04:17.087Z,79.36
2016-07-01T08:05:17.068Z,79.17
2016-07-01T08:06:16.429Z,79.75
2016-07-01T08:07:16.394Z,79.36
2016-07-01T08:08:16.376Z,79.17
2016-07-01T08:09:17.003Z,79.66
2016-07-01T08:10:17.147Z,78.98
2016-07-01T08:11:16.994Z,78.92
2016-07-01T08:12:16.330Z,79.31
2016-07-01T08:13:16.979Z,79.36
2016-07-01T08:14:16.306Z,79.36
2016-07-01T08:15:17.076Z,78.4
2016-07-01T08:16:16.287Z,78.63
2016-07-01T08:17:17.218Z,78.15
2016-07-01T08:18:16.957Z,77.48
2016-07-01T08:19:16.896Z,77.38
2016-07-01T08:20:16.879Z,77.09
2016-07-01T08:21:16.856Z,77
2016-07-01T08:22:16.851Z,76.36
2016-07-01T08:23:16.833Z,76.36
2016-07-01T08:24:16.818Z,76.93
2016-07-01T08:25:16.814Z,76.75
2016-07-01T08:26:16.780Z,76.45
2016-07-01T08:27:16.773Z,76.93
2016-07-01T08:28:16.758Z,76.84
2016-07-01T08:29:16.743Z,77.23
2016-07-01T08:30:16.747Z,77.38
2016-07-01T08:31:16.705Z,77.38
2016-07-01T08:32:16.059Z,77.38
2016-07-01T08:33:16.671Z,77.48
2016-07-01T08:34:16.686Z,76.71
2016-07-01T08:35:16.660Z,76.07
2016-07-01T08:36:16.640Z,76.93
2016-07-01T08:37:16.633Z,76.32
2016-07-01T08:38:16.608Z,77.23
2016-07-01T08:39:15.973Z,76.36
2016-07-01T08:40:16.610Z,76.26
2016-07-01T08:41:15.943Z,75.88
2016-07-01T08:42:15.920Z,76.07
2016-07-01T08:43:15.928Z,75.59
2016-07-01T08:44:16.645Z,75.78
2016-07-01T08:45:16.518Z,75.59
2016-07-01T08:46:16.503Z,75.2
2016-07-01T08:47:16.494Z,75.59
2016-07-01T08:48:16.479Z,75.59
2016-07-01T08:49:16.457Z,76.07
2016-07-01T08:50:15.818Z,75.78
2016-07-01T08:51:15.800Z,74.91
2016-07-01T08:52:16.431Z,76.07
2016-07-01T08:53:15.774Z,76.61
2016-07-01T08:54:16.398Z,76.13
2016-07-01T08:55:16.394Z,76.13
2016-07-01T08:56:16.380Z,76.45
2016-07-01T08:57:16.359Z,77.09
2016-07-01T08:58:16.349Z,76.71
2016-07-01T08:59:16.333Z,76.03
2016-07-01T09:00:16.661Z,75.97
2016-07-01T09:01:16.302Z,74.95
2016-07-01T09:02:15.643Z,75.1
2016-07-01T09:03:15.638Z,74.85
2016-07-01T09:04:16.264Z,74.27
2016-07-01T09:05:15.604Z,73.79
2016-07-01T09:06:15.812Z,74.85
2016-07-01T09:07:16.222Z,74.08
2016-07-01T09:08:16.392Z,74.18
2016-07-01T09:09:16.208Z,74.18
2016-07-01T09:10:16.216Z,75.34
2016-07-01T09:11:16.177Z,75.4
2016-07-01T09:12:15.525Z,74.66
2016-07-01T09:13:15.513Z,75.34
2016-07-01T09:14:16.127Z,74.66
2016-07-01T09:15:16.117Z,75.05
2016-07-01T09:16:16.115Z,75.24
2016-07-01T09:17:16.153Z,75.34
2016-07-01T09:18:16.081Z,74.57
2016-07-01T09:19:16.065Z,74.66
2016-07-01T09:20:15.417Z,74.76
2016-07-01T09:21:16.046Z,74.85
2016-07-01T09:22:16.021Z,74.12
2016-07-01T09:23:15.378Z,74.08
2016-07-01T09:24:16.011Z,74.08
2016-07-01T09:25:16.035Z,74.12
2016-07-01T09:26:15.986Z,73.63
2016-07-01T09:27:15.958Z,74.79
2016-07-01T09:28:15.961Z,74.41
2016-07-01T09:29:15.933Z,74.12
2016-07-01T09:30:15.927Z,73.83
2016-07-01T09:31:15.933Z,73.73
2016-07-01T09:32:15.911Z,74.31
2016-07-01T09:33:15.943Z,74.79
2016-07-01T09:34:15.884Z,75.09
2016-07-01T09:35:15.222Z,74.6
2016-07-01T09:36:15.861Z,74.89
2016-07-01T09:37:16.071Z,74.99
2016-07-01T09:38:15.206Z,74.89
2016-07-01T09:39:15.820Z,75.09
2016-07-01T09:40:15.861Z,73.83
2016-07-01T09:41:15.821Z,74.12
2016-07-01T09:42:15.780Z,74.89
2016-07-01T09:43:15.765Z,75.82
2016-07-01T09:44:15.907Z,75.14
2016-07-01T09:45:15.766Z,75.05
2016-07-01T09:46:15.742Z,75.62
2016-07-01T09:47:15.920Z,75.27
2016-07-01T09:48:15.691Z,75.85
2016-07-01T09:49:15.697Z,76.15
2016-07-01T09:50:16.137Z,75.05
2016-07-01T09:51:15.662Z,74.47
2016-07-01T09:52:15.737Z,74.51
2016-07-01T09:53:15.652Z,74.51
2016-07-01T09:54:15.650Z,75.43
2016-07-01T09:55:15.604Z,74.85
2016-07-01T09:56:15.597Z,74.31
2016-07-01T09:57:15.581Z,74.51
2016-07-01T09:58:14.939Z,74.12
2016-07-01T09:59:15.584Z,74.79
2016-07-01T10:00:15.874Z,74.85
2016-07-01T10:01:15.553Z,74.76
2016-07-01T10:02:15.524Z,74.21
2016-07-01T10:03:15.500Z,72.86
2016-07-01T10:04:15.498Z,73.06
2016-07-01T10:05:15.489Z,73.25
2016-07-01T10:06:15.481Z,73.25
2016-07-01T10:07:14.822Z,73.35
2016-07-01T10:08:15.452Z,73.35
2016-07-01T10:09:15.475Z,73.25
2016-07-01T10:10:14.795Z,72.58
2016-07-01T10:11:15.403Z,73.63
2016-07-01T10:12:15.399Z,73.89
2016-07-01T10:13:15.386Z,73.6
2016-07-01T10:14:15.371Z,73.41
2016-07-01T10:15:15.502Z,72.96
2016-07-01T10:16:15.366Z,72.77
2016-07-01T10:17:15.346Z,72.09
2016-07-01T10:18:15.318Z,71.8
2016-07-01T10:19:15.302Z,70.87
2016-07-01T10:20:15.296Z,70.58
2016-07-01T10:21:14.639Z,70.52
2016-07-01T10:22:15.767Z,70.14
2016-07-01T10:23:15.269Z,69.46
2016-07-01T10:24:15.499Z,69.46
2016-07-01T10:25:15.219Z,69.59
2016-07-01T10:26:15.212Z,70.04
2016-07-01T10:27:15.199Z,69.94
2016-07-01T10:28:15.182Z,69.84
2016-07-01T10:29:15.178Z,70.17
2016-07-01T10:30:15.183Z,70.32
2016-07-01T10:31:15.184Z,69.74
2016-07-01T10:32:14.513Z,69.84
2016-07-01T10:33:15.132Z,69.07
2016-07-01T10:34:15.116Z,69.3
2016-07-01T10:35:15.094Z,68.4
2016-07-01T10:36:14.458Z,68.59
2016-07-01T10:37:15.087Z,68.43
2016-07-01T10:38:15.148Z,69.26
2016-07-01T10:39:15.041Z,68.43
2016-07-01T10:40:14.442Z,67.75
2016-07-01T10:41:15.050Z,66.82
2016-07-01T10:42:15.036Z,66.91
2016-07-01T10:43:15.111Z,66.82
2016-07-01T10:44:15.403Z,66.72
2016-07-01T10:45:15.145Z,66.33
2016-07-01T10:46:14.965Z,66.63
2016-07-01T10:47:14.968Z,66.72
2016-07-01T10:48:15.333Z,66.14
2016-07-01T10:49:14.937Z,65.79
2016-07-01T10:50:14.482Z,65.79
2016-07-01T10:51:14.923Z,65.01
2016-07-01T10:52:14.347Z,64.66
2016-07-01T10:53:14.884Z,64.75
2016-07-01T10:54:14.887Z,64.17
2016-07-01T10:55:14.222Z,63.92
2016-07-01T10:56:14.999Z,62.95
2016-07-01T10:57:14.320Z,63.72
2016-07-01T10:58:14.810Z,64.07
2016-07-01T10:59:14.802Z,65.2
2016-07-01T11:00:14.785Z,63.95
2016-07-01T11:01:14.976Z,62.92
2016-07-01T11:02:14.265Z,62.53
2016-07-01T11:03:14.752Z,63.21
2016-07-01T11:04:14.737Z,62.53
2016-07-01T11:05:14.754Z,62.17
2016-07-01T11:06:14.834Z,61.21
2016-07-01T11:07:14.697Z,60.46
2016-07-01T11:08:14.045Z,60.27
2016-07-01T11:09:14.085Z,60.88
2016-07-01T11:10:14.034Z,61.14
2016-07-01T11:11:14.691Z,60.85
2016-07-01T11:12:14.647Z,60.94
2016-07-01T11:13:14.635Z,61.04
2016-07-01T11:14:14.058Z,60.82
2016-07-01T11:15:13.960Z,60.17
2016-07-01T11:16:13.954Z,60.36
2016-07-01T11:17:14.733Z,60.65
2016-07-01T11:18:14.615Z,61.33
2016-07-01T11:19:14.546Z,60.85
2016-07-01T11:20:14.555Z,60.33
2016-07-01T11:21:14.528Z,60.36
2016-07-01T11:22:14.518Z,60.17
2016-07-01T11:23:14.505Z,59.2
2016-07-01T11:24:14.491Z,60.27
2016-07-01T11:25:14.480Z,59.49
2016-07-01T11:26:13.819Z,59
2016-07-01T11:27:14.458Z,57.87
2016-07-01T11:28:14.481Z,58.97
2016-07-01T11:29:14.439Z,58.65
2016-07-01T11:30:13.784Z,57.97
2016-07-01T11:31:13.770Z,57.32
2016-07-01T11:32:14.414Z,57.42
2016-07-01T11:33:13.747Z,57.03
2016-07-01T11:34:14.382Z,58.16
2016-07-01T11:35:14.364Z,58.36
2016-07-01T11:36:14.355Z,57.42
2016-07-01T11:37:13.705Z,56.37
2016-07-01T11:38:13.715Z,56.01
2016-07-01T11:39:14.335Z,56.01
2016-07-01T11:40:14.315Z,55.92
2016-07-01T11:41:14.306Z,55.53
2016-07-01T11:42:13.648Z,58.8
2016-07-01T11:43:14.286Z,60.97
2016-07-01T11:44:14.277Z,60.91
2016-07-01T11:45:14.299Z,60.75
2016-07-01T11:46:14.274Z,58.84
2016-07-01T11:47:14.263Z,57.32
2016-07-01T11:48:14.272Z,55.5
2016-07-01T11:49:14.258Z,57.01
2016-07-01T11:50:13.598Z,56.86
2016-07-01T11:51:14.229Z,54.1
2016-07-01T11:52:14.230Z,53.74
2016-07-01T11:53:14.223Z,52.09
2016-07-01T11:54:14.230Z,51.55
2016-07-01T11:55:14.226Z,51.55
2016-07-01T11:56:14.203Z,50.29
2016-07-01T11:57:13.585Z,50.02
2016-07-01T11:58:13.561Z,50.02
2016-07-01T11:59:14.195Z,49.73
2016-07-01T12:00:14.190Z,49.92
2016-07-01T12:01:14.186Z,50.31
2016-07-01T12:02:14.199Z,49.92
2016-07-01T12:03:13.562Z,50.09
2016-07-01T12:04:14.454Z,49.71
2016-07-01T12:05:14.181Z,49.17
2016-07-01T12:06:14.174Z,50.6
2016-07-01T12:07:14.186Z,51.17
2016-07-01T12:08:14.177Z,51.23
2016-07-01T12:09:14.178Z,49.41
2016-07-01T12:10:14.164Z,47.32
2016-07-01T12:11:14.166Z,46.59
2016-07-01T12:12:14.158Z,47.17
2016-07-01T12:13:13.547Z,46.49
2016-07-01T12:14:14.188Z,45.54
2016-07-01T12:15:14.158Z,45.46
2016-07-01T12:16:14.183Z,45.07
2016-07-01T12:17:14.147Z,45.87
2016-07-01T12:18:14.150Z,46.24
2016-07-01T12:19:14.146Z,46.12
2016-07-01T12:20:14.150Z,45.25
2016-07-01T12:21:14.150Z,45.17
2016-07-01T12:22:14.141Z,44.38
2016-07-01T12:23:13.509Z,45.07
2016-07-01T12:24:14.134Z,44.97
2016-07-01T12:25:14.140Z,46.14
2016-07-01T12:26:13.504Z,45.92
2016-07-01T12:27:14.129Z,46.8
2016-07-01T12:28:13.489Z,45.15
2016-07-01T12:29:14.126Z,44.97
2016-07-01T12:30:14.203Z,45.07
2016-07-01T12:31:14.400Z,45.65
2016-07-01T12:32:14.194Z,45.17
2016-07-01T12:33:14.651Z,45.56
2016-07-01T12:34:14.124Z,44.37
2016-07-01T12:35:14.444Z,43.82
2016-07-01T12:36:14.444Z,44.43
2016-07-01T12:37:14.121Z,44.97
2016-07-01T12:38:14.106Z,44.31
2016-07-01T12:39:14.121Z,44.51
2016-07-01T12:40:14.129Z,45.07
2016-07-01T12:41:14.113Z,45.39
2016-07-01T12:42:14.163Z,44.87
2016-07-01T12:43:13.510Z,43.8
2016-07-01T12:44:14.143Z,44.16
2016-07-01T12:45:14.139Z,45.29
2016-07-01T12:46:14.154Z,45.65
2016-07-01T12:47:14.176Z,45.83
2016-07-01T12:48:14.223Z,44.48
2016-07-01T12:49:14.112Z,44.21
2016-07-01T12:50:13.528Z,44.04
2016-07-01T12:51:14.078Z,45.56
2016-07-01T12:52:13.511Z,46.24
2016-07-01T12:53:14.093Z,49.02
2016-07-01T12:54:13.713Z,48.46